createdAt,value
2022-10-11T00:00:59.263Z,65.33
2022-10-11T00:03:35.388Z,65.36
2022-10-11T00:06:06.037Z,65.41
2022-10-11T00:08:35.219Z,65.55
2022-10-11T00:11:06.863Z,65.78
2022-10-11T00:13:35.432Z,65.98
2022-10-11T00:16:11.381Z,66.19
2022-10-11T00:18:39.872Z,66.40
2022-10-11T00:21:13.902Z,66.35
2022-10-11T00:23:42.775Z,66.43
2022-10-11T00:26:11.715Z,66.65
2022-10-11T00:28:41.186Z,66.54
2022-10-11T00:31:11.874Z,66.67
2022-10-11T00:33:39.900Z,66.82
2022-10-11T00:36:09.267Z,66.69
2022-10-11T00:38:37.746Z,66.73
2022-10-11T00:41:05.918Z,66.75
2022-10-11T00:43:34.396Z,66.93
2022-10-11T00:46:05.451Z,67.01
2022-10-11T00:48:40.173Z,66.95
2022-10-11T00:51:26.564Z,67.19
2022-10-11T00:53:54.944Z,67.19
2022-10-11T00:56:36.736Z,67.33
2022-10-11T00:59:10.815Z,67.43
2022-10-11T01:01:38.886Z,67.61
2022-10-11T01:04:06.998Z,67.62
2022-10-11T01:06:35.705Z,67.72
2022-10-11T01:09:04.404Z,67.81
2022-10-11T01:11:34.401Z,67.86
2022-10-11T01:14:11.557Z,67.83
2022-10-11T01:16:42.399Z,67.95
2022-10-11T01:19:32.182Z,68.20
2022-10-11T01:22:27.685Z,68.30
2022-10-11T01:25:21.662Z,68.49
2022-10-11T01:28:13.545Z,68.66
2022-10-11T01:30:42.993Z,68.89
2022-10-11T01:33:20.750Z,69.14
2022-10-11T01:35:57.773Z,69.30
2022-10-11T01:39:05.272Z,69.45
2022-10-11T01:41:42.898Z,69.68
2022-10-11T01:44:13.498Z,69.84
2022-10-11T01:46:42.036Z,69.96
2022-10-11T01:49:10.453Z,70.13
2022-10-11T01:51:45.225Z,70.28
2022-10-11T01:54:56.524Z,70.57
2022-10-11T01:57:41.262Z,70.83
2022-10-11T02:00:32.539Z,70.99
2022-10-11T02:03:24.162Z,71.22
2022-10-11T02:06:01.771Z,71.57
2022-10-11T02:08:44.982Z,71.64
2022-10-11T02:11:25.444Z,71.90
2022-10-11T02:14:15.208Z,72.00
2022-10-11T02:16:47.423Z,72.03
2022-10-11T02:19:19.246Z,71.93
2022-10-11T02:21:53.770Z,72.05
2022-10-11T02:24:27.778Z,72.23
2022-10-11T02:26:59.536Z,72.32
2022-10-11T02:29:30.787Z,72.51
2022-10-11T02:32:00.752Z,72.71
2022-10-11T02:34:44.645Z,72.78
2022-10-11T02:37:23.153Z,72.82
2022-10-11T02:40:20.160Z,72.77
2022-10-11T02:43:25.138Z,73.02
2022-10-11T02:46:00.375Z,73.07
2022-10-11T02:48:29.542Z,73.10
2022-10-11T02:50:58.285Z,73.23
2022-10-11T02:53:27.311Z,73.12
2022-10-11T02:55:55.987Z,73.11
2022-10-11T02:58:24.700Z,72.95
2022-10-11T03:00:52.586Z,73.08
2022-10-11T03:03:20.530Z,73.10
2022-10-11T03:05:48.572Z,72.96
2022-10-11T03:08:17.931Z,73.03
2022-10-11T03:10:45.893Z,72.97
2022-10-11T03:13:17.869Z,72.79
2022-10-11T03:16:02.801Z,72.75
2022-10-11T03:18:31.819Z,72.88
2022-10-11T03:21:00.107Z,73.03
2022-10-11T03:23:28.440Z,72.84
2022-10-11T03:25:56.434Z,72.95
2022-10-11T03:28:24.434Z,72.98
2022-10-11T03:30:52.889Z,73.03
2022-10-11T03:33:20.856Z,73.04
2022-10-11T03:35:49.949Z,73.01
2022-10-11T03:38:21.093Z,73.12
2022-10-11T03:40:49.263Z,73.22
2022-10-11T03:43:17.538Z,73.11
2022-10-11T03:45:45.445Z,73.16
2022-10-11T03:48:13.413Z,73.23
2022-10-11T03:50:41.343Z,73.23
2022-10-11T03:53:09.636Z,73.25
2022-10-11T03:55:41.682Z,73.31
2022-10-11T03:58:09.961Z,73.44
2022-10-11T04:00:38.235Z,73.43
2022-10-11T04:03:06.301Z,73.50
2022-10-11T04:05:34.269Z,73.49
2022-10-11T04:08:02.627Z,73.54
2022-10-11T04:10:31.742Z,73.71
2022-10-11T04:12:59.644Z,73.87
2022-10-11T04:15:27.573Z,73.70
2022-10-11T04:17:55.419Z,73.89
2022-10-11T04:20:23.613Z,74.04
2022-10-11T04:22:51.491Z,74.07
2022-10-11T04:25:19.551Z,74.21
2022-10-11T04:27:47.723Z,74.17
2022-10-11T04:30:16.476Z,74.28
2022-10-11T04:32:45.352Z,74.60
2022-10-11T04:35:13.367Z,74.54
2022-10-11T04:37:41.273Z,74.49
2022-10-11T04:40:10.351Z,74.66
2022-10-11T04:42:38.502Z,74.64
2022-10-11T04:45:07.290Z,74.84
2022-10-11T04:47:35.260Z,75.04
2022-10-11T04:50:04.105Z,75.39
2022-10-11T04:52:32.116Z,75.81
2022-10-11T04:55:00.199Z,75.97
2022-10-11T04:57:28.158Z,76.09
2022-10-11T04:59:56.123Z,76.19
2022-10-11T05:02:24.026Z,76.13
2022-10-11T05:04:52.057Z,76.32
2022-10-11T05:07:19.932Z,76.52
2022-10-11T05:09:48.001Z,76.51
2022-10-11T05:12:16.936Z,76.73
2022-10-11T05:14:45.087Z,76.69
2022-10-11T05:17:13.127Z,76.65
2022-10-11T05:19:41.093Z,76.73
2022-10-11T05:22:09.315Z,76.79
2022-10-11T05:24:37.864Z,76.93
2022-10-11T05:27:05.829Z,76.84
2022-10-11T05:29:34.300Z,77.09
2022-10-11T05:32:02.268Z,77.17
2022-10-11T05:34:30.439Z,77.34
2022-10-11T05:36:58.366Z,77.57
2022-10-11T05:39:26.377Z,77.89
2022-10-11T05:41:54.274Z,78.11
2022-10-11T05:44:23.134Z,78.48
2022-10-11T05:46:51.102Z,78.72
2022-10-11T05:49:18.967Z,78.83
2022-10-11T05:51:47.138Z,78.78
2022-10-11T05:54:15.315Z,78.96
2022-10-11T05:56:43.284Z,78.93
2022-10-11T05:59:11.250Z,78.92
2022-10-11T06:01:39.414Z,78.95
2022-10-11T06:04:08.516Z,78.87
2022-10-11T06:06:36.482Z,79.00
2022-10-11T06:09:04.453Z,78.97
2022-10-11T06:11:32.459Z,78.90
2022-10-11T06:14:00.514Z,79.00
2022-10-11T06:16:28.467Z,79.03
2022-10-11T06:18:57.712Z,79.06
2022-10-11T06:21:25.726Z,79.06
2022-10-11T06:23:59.936Z,79.06
2022-10-11T06:26:30.168Z,79.08
2022-10-11T06:28:58.972Z,79.09
2022-10-11T06:31:27.388Z,79.13
2022-10-11T06:33:55.410Z,78.97
2022-10-11T06:36:23.364Z,78.68
2022-10-11T06:38:52.629Z,78.31
2022-10-11T06:41:23.400Z,78.11
2022-10-11T06:43:51.983Z,78.08
2022-10-11T06:46:22.667Z,78.21
2022-10-11T06:48:51.360Z,78.10
2022-10-11T06:51:21.321Z,77.83
2022-10-11T06:53:52.963Z,77.70
2022-10-11T06:56:21.407Z,77.26
2022-10-11T06:58:51.284Z,77.25
2022-10-11T07:01:21.670Z,77.39
2022-10-11T07:03:51.804Z,76.99
2022-10-11T07:06:23.050Z,76.74
2022-10-11T07:08:51.324Z,76.64
2022-10-11T07:11:27.584Z,76.59
2022-10-11T07:14:02.307Z,76.61
2022-10-11T07:16:30.814Z,76.38
2022-10-11T07:19:01.209Z,76.02
2022-10-11T07:21:31.956Z,75.54
2022-10-11T07:24:00.765Z,75.33
2022-10-11T07:26:33.821Z,75.04
2022-10-11T07:29:02.260Z,74.78
2022-10-11T07:31:31.057Z,74.71
2022-10-11T07:33:59.126Z,74.23
2022-10-11T07:36:27.141Z,73.79
2022-10-11T07:38:55.196Z,73.41
2022-10-11T07:41:23.168Z,73.17
2022-10-11T07:43:51.312Z,73.02
2022-10-11T07:46:19.414Z,72.43
2022-10-11T07:48:50.192Z,71.77
2022-10-11T07:51:21.148Z,71.78
2022-10-11T07:53:54.787Z,72.19
2022-10-11T07:56:28.244Z,71.47
2022-10-11T07:58:58.808Z,71.23
2022-10-11T08:01:27.955Z,70.31
2022-10-11T08:03:57.440Z,70.25
2022-10-11T08:06:29.572Z,69.94
2022-10-11T08:09:01.097Z,69.35
2022-10-11T08:11:32.714Z,69.09
2022-10-11T08:14:02.679Z,68.63
2022-10-11T08:16:30.744Z,68.14
2022-10-11T08:18:58.839Z,67.39
2022-10-11T08:21:27.057Z,66.65
2022-10-11T08:23:55.155Z,66.22
2022-10-11T08:26:23.456Z,65.76
2022-10-11T08:28:51.599Z,65.56
2022-10-11T08:31:20.113Z,64.88
2022-10-11T08:33:48.077Z,64.00
2022-10-11T08:36:16.054Z,63.97
2022-10-11T08:38:44.015Z,63.58
2022-10-11T08:41:27.240Z,63.51
2022-10-11T08:44:00.941Z,63.61
2022-10-11T08:46:33.163Z,62.84
2022-10-11T08:49:02.920Z,62.58
2022-10-11T08:51:47.477Z,61.97
2022-10-11T08:54:32.341Z,61.81
2022-10-11T08:57:02.831Z,61.49
2022-10-11T08:59:41.387Z,60.72
2022-10-11T09:03:06.815Z,60.63
2022-10-11T09:05:37.631Z,60.98
2022-10-11T09:08:21.779Z,60.29
2022-10-11T09:10:58.861Z,60.27
2022-10-11T09:14:04.716Z,59.90
2022-10-11T09:17:08.218Z,60.06
2022-10-11T09:20:13.339Z,59.22
2022-10-11T09:23:04.468Z,59.58
2022-10-11T09:25:37.864Z,59.22
2022-10-11T09:28:12.133Z,58.25
2022-10-11T09:30:47.650Z,56.96
2022-10-11T09:33:19.954Z,56.59
2022-10-11T09:35:51.142Z,55.75
2022-10-11T09:38:24.666Z,55.62
2022-10-11T09:41:11.854Z,56.08
2022-10-11T09:43:40.040Z,55.16
2022-10-11T09:46:53.563Z,54.99
2022-10-11T09:49:25.576Z,54.30
2022-10-11T09:51:56.475Z,53.76
2022-10-11T09:54:42.761Z,52.80
2022-10-11T09:57:33.973Z,52.82
2022-10-11T10:00:05.326Z,53.19
2022-10-11T10:02:44.966Z,53.81
2022-10-11T10:05:15.609Z,53.77
2022-10-11T10:08:11.644Z,54.29
2022-10-11T10:10:57.069Z,54.35
2022-10-11T10:13:51.385Z,53.85
2022-10-11T10:16:26.107Z,54.58
2022-10-11T10:19:04.417Z,54.51
2022-10-11T10:21:45.775Z,53.68
2022-10-11T10:24:41.008Z,54.03
2022-10-11T10:27:08.976Z,53.89
2022-10-11T10:29:38.237Z,54.06
2022-10-11T10:32:15.000Z,53.28
2022-10-11T10:35:06.474Z,54.06
2022-10-11T10:37:53.034Z,53.54
2022-10-11T10:40:58.418Z,53.13
2022-10-11T10:43:32.302Z,53.33
2022-10-11T10:46:12.174Z,51.95
2022-10-11T10:49:23.261Z,51.48
2022-10-11T10:52:03.300Z,51.75
2022-10-11T10:54:39.663Z,52.34
2022-10-11T10:57:41.120Z,52.21
2022-10-11T11:00:21.784Z,51.86
2022-10-11T11:03:05.791Z,52.00
2022-10-11T11:05:51.416Z,52.06
2022-10-11T11:08:37.714Z,52.69
2022-10-11T11:11:24.412Z,52.49
2022-10-11T11:14:18.904Z,51.77
2022-10-11T11:17:07.761Z,51.77
2022-10-11T11:19:53.957Z,51.57
2022-10-11T11:22:36.976Z,50.87
2022-10-11T11:25:23.993Z,50.48
2022-10-11T11:28:15.224Z,50.35
2022-10-11T11:30:58.230Z,50.00
2022-10-11T11:33:35.208Z,49.89
2022-10-11T11:36:11.366Z,49.54
2022-10-11T11:39:07.193Z,50.07
2022-10-11T11:41:47.133Z,50.42
2022-10-11T11:44:48.588Z,51.43
2022-10-11T11:47:25.469Z,51.93
2022-10-11T11:49:59.410Z,52.40
2022-10-11T11:52:33.904Z,52.36
2022-10-11T11:55:33.607Z,51.67
2022-10-11T11:58:35.777Z,52.06
2022-10-11T12:01:31.394Z,51.08
2022-10-11T12:04:09.497Z,50.52
2022-10-11T12:06:52.486Z,50.16
2022-10-11T12:09:27.291Z,49.94
2022-10-11T12:12:34.022Z,49.12
2022-10-11T12:15:18.682Z,48.55
2022-10-11T12:18:04.161Z,48.82
2022-10-11T12:20:38.169Z,48.76
2022-10-11T12:23:29.042Z,48.10
2022-10-11T12:26:32.168Z,48.19
2022-10-11T12:29:05.427Z,49.08
2022-10-11T12:31:35.965Z,49.47
2022-10-11T12:34:37.227Z,50.23
2022-10-11T12:37:31.726Z,50.47
2022-10-11T12:40:00.469Z,50.59
2022-10-11T12:42:36.482Z,50.48
2022-10-11T12:45:13.454Z,50.55
2022-10-11T12:47:44.178Z,51.09
2022-10-11T12:50:26.085Z,51.01
2022-10-11T12:54:02.288Z,50.26
2022-10-11T12:56:57.756Z,49.78
2022-10-11T12:59:26.543Z,49.54
2022-10-11T13:01:58.204Z,49.13
2022-10-11T13:04:29.437Z,49.35
2022-10-11T13:07:06.813Z,49.68
2022-10-11T13:09:39.509Z,50.52
2022-10-11T13:12:13.623Z,50.59
2022-10-11T13:15:07.703Z,50.55
2022-10-11T13:17:39.356Z,50.25
2022-10-11T13:20:16.446Z,50.37
2022-10-11T13:22:48.194Z,49.96
2022-10-11T13:25:23.515Z,50.10
2022-10-11T13:27:53.652Z,50.91
2022-10-11T13:30:28.275Z,50.92
2022-10-11T13:32:57.090Z,50.19
2022-10-11T13:35:34.764Z,50.92
2022-10-11T13:38:07.542Z,50.96
2022-10-11T13:40:35.932Z,52.07
2022-10-11T13:43:06.010Z,53.06
2022-10-11T13:45:37.661Z,53.46
2022-10-11T13:48:16.516Z,53.59
2022-10-11T13:50:52.262Z,53.28
2022-10-11T13:53:25.557Z,53.28
2022-10-11T13:56:06.373Z,52.64
2022-10-11T13:58:46.455Z,52.85
2022-10-11T14:01:24.971Z,53.28
2022-10-11T14:04:11.274Z,53.71
2022-10-11T14:07:01.043Z,53.52
2022-10-11T14:09:39.719Z,54.09
2022-10-11T14:12:26.297Z,54.17
2022-10-11T14:14:54.685Z,54.44
2022-10-11T14:17:42.714Z,53.95
2022-10-11T14:20:20.507Z,54.16
2022-10-11T14:22:52.759Z,53.76
2022-10-11T14:25:21.929Z,53.67
2022-10-11T14:27:50.201Z,53.86
2022-10-11T14:30:25.771Z,54.06
2022-10-11T14:32:57.147Z,54.13
2022-10-11T14:35:32.078Z,54.45
2022-10-11T14:38:00.350Z,54.77
2022-10-11T14:40:30.881Z,55.24
2022-10-11T14:42:59.021Z,55.40
2022-10-11T14:45:28.082Z,55.57
2022-10-11T14:47:56.729Z,55.88
2022-10-11T14:50:30.790Z,56.05
2022-10-11T14:52:59.019Z,55.87
2022-10-11T14:55:27.369Z,55.92
2022-10-11T14:57:56.416Z,55.12
2022-10-11T15:00:28.065Z,54.98
2022-10-11T15:02:56.661Z,55.36
2022-10-11T15:05:32.680Z,55.16
2022-10-11T15:08:03.206Z,55.08
2022-10-11T15:10:36.295Z,55.25
2022-10-11T15:13:05.318Z,55.42
2022-10-11T15:15:36.949Z,55.35
2022-10-11T15:18:06.825Z,55.89
2022-10-11T15:20:38.611Z,56.11
2022-10-11T15:23:09.913Z,56.59
2022-10-11T15:25:40.080Z,56.57
2022-10-11T15:28:14.821Z,56.45
2022-10-11T15:30:43.285Z,56.63
2022-10-11T15:33:11.707Z,56.75
2022-10-11T15:35:45.984Z,56.97
2022-10-11T15:38:24.190Z,57.46
2022-10-11T15:40:52.945Z,57.79
2022-10-11T15:43:24.795Z,57.70
2022-10-11T15:45:58.024Z,58.06
2022-10-11T15:48:27.721Z,58.21
2022-10-11T15:50:55.830Z,58.74
2022-10-11T15:53:31.157Z,58.64
2022-10-11T15:56:02.575Z,59.15
2022-10-11T15:58:36.579Z,59.34
2022-10-11T16:01:08.415Z,59.12
2022-10-11T16:03:36.859Z,59.44
2022-10-11T16:06:05.835Z,59.31
2022-10-11T16:08:34.571Z,59.27
2022-10-11T16:11:04.329Z,59.05
2022-10-11T16:13:32.708Z,59.41
2022-10-11T16:16:02.630Z,59.48
2022-10-11T16:18:35.332Z,59.44
2022-10-11T16:21:10.139Z,59.61
2022-10-11T16:23:39.022Z,59.74
2022-10-11T16:26:13.495Z,60.02
2022-10-11T16:28:42.206Z,60.31
2022-10-11T16:31:14.297Z,60.66
2022-10-11T16:33:48.383Z,60.97
2022-10-11T16:36:32.662Z,61.16
2022-10-11T16:39:02.563Z,61.52
2022-10-11T16:41:30.562Z,61.82
2022-10-11T16:43:58.641Z,62.09
2022-10-11T16:46:26.889Z,62.10
2022-10-11T16:48:56.594Z,62.47
2022-10-11T16:51:25.071Z,62.93
2022-10-11T16:53:53.537Z,63.13
2022-10-11T16:56:24.325Z,62.80
2022-10-11T16:58:53.425Z,63.24
2022-10-11T17:01:22.089Z,63.41
2022-10-11T17:03:51.106Z,63.57
2022-10-11T17:06:20.150Z,63.54
2022-10-11T17:08:48.189Z,63.80
2022-10-11T17:11:21.989Z,64.08
2022-10-11T17:13:53.541Z,64.14
2022-10-11T17:16:22.891Z,64.45
2022-10-11T17:18:51.413Z,64.72
2022-10-11T17:21:23.416Z,64.95
2022-10-11T17:23:51.796Z,65.00
2022-10-11T17:26:26.403Z,65.38
2022-10-11T17:28:56.982Z,65.69
2022-10-11T17:31:26.270Z,65.76
2022-10-11T17:33:55.319Z,65.92
2022-10-11T17:36:27.934Z,66.49
2022-10-11T17:38:55.992Z,66.65
2022-10-11T17:41:28.155Z,66.68
2022-10-11T17:43:59.724Z,67.31
2022-10-11T17:46:32.380Z,67.21
2022-10-11T17:49:02.092Z,67.41
2022-10-11T17:51:30.060Z,67.58
2022-10-11T17:53:58.032Z,67.70
2022-10-11T17:56:30.434Z,68.27
2022-10-11T17:59:00.555Z,68.40
2022-10-11T18:01:29.613Z,68.46
2022-10-11T18:04:03.422Z,68.68
2022-10-11T18:06:33.643Z,68.91
2022-10-11T18:09:03.046Z,69.30
2022-10-11T18:11:31.626Z,69.63
2022-10-11T18:13:59.891Z,69.72
2022-10-11T18:16:30.426Z,70.05
2022-10-11T18:18:59.125Z,70.13
2022-10-11T18:21:33.995Z,70.54
2022-10-11T18:24:15.142Z,70.79
2022-10-11T18:26:45.136Z,70.63
2022-10-11T18:29:15.325Z,70.95
2022-10-11T18:31:43.734Z,71.00
2022-10-11T18:34:13.231Z,70.94
2022-10-11T18:36:41.522Z,71.31
2022-10-11T18:39:14.533Z,71.56
2022-10-11T18:41:44.722Z,71.56
2022-10-11T18:44:15.331Z,71.88
2022-10-11T18:46:44.467Z,71.89
2022-10-11T18:49:13.651Z,72.03
2022-10-11T18:51:43.048Z,72.27
2022-10-11T18:54:15.404Z,72.09
2022-10-11T18:56:46.372Z,72.00
2022-10-11T18:59:14.429Z,72.12
2022-10-11T19:01:44.776Z,72.58
2022-10-11T19:04:16.155Z,72.41
2022-10-11T19:06:49.663Z,72.43
2022-10-11T19:09:24.734Z,72.74
2022-10-11T19:11:55.671Z,72.95
2022-10-11T19:14:26.743Z,73.10
2022-10-11T19:16:56.414Z,73.27
2022-10-11T19:19:27.966Z,73.59
2022-10-11T19:21:55.937Z,73.55
2022-10-11T19:24:27.241Z,73.53
2022-10-11T19:26:59.851Z,73.45
2022-10-11T19:29:31.104Z,73.44
2022-10-11T19:32:01.443Z,73.50
2022-10-11T19:34:31.735Z,73.56
2022-10-11T19:37:01.388Z,73.59
2022-10-11T19:39:29.806Z,73.73
2022-10-11T19:41:58.019Z,73.53
2022-10-11T19:44:26.291Z,73.31
2022-10-11T19:46:54.263Z,73.43
2022-10-11T19:49:25.294Z,73.48
2022-10-11T19:51:55.613Z,73.71
2022-10-11T19:54:23.899Z,74.02
2022-10-11T19:56:52.775Z,74.08
2022-10-11T19:59:20.751Z,74.10
2022-10-11T20:01:52.735Z,73.90
2022-10-11T20:04:50.498Z,73.64
2022-10-11T20:07:10.576Z,73.64
2022-10-11T20:09:38.636Z,73.58
2022-10-11T20:12:07.779Z,73.58
2022-10-11T20:14:35.800Z,73.72
2022-10-11T20:17:03.876Z,73.64
2022-10-11T20:19:32.056Z,73.65
2022-10-11T20:22:01.068Z,73.59
2022-10-11T20:24:33.666Z,73.73
2022-10-11T20:27:06.026Z,73.84
2022-10-11T20:29:34.563Z,74.01
2022-10-11T20:32:02.637Z,74.25
2022-10-11T20:34:31.181Z,74.24
2022-10-11T20:36:59.492Z,74.33
2022-10-11T20:39:27.435Z,74.41
2022-10-11T20:41:55.536Z,74.50
2022-10-11T20:44:23.713Z,74.57
2022-10-11T20:46:51.877Z,74.63
2022-10-11T20:49:20.202Z,74.50
2022-10-11T20:51:48.917Z,74.60
2022-10-11T20:54:17.639Z,74.85
2022-10-11T20:56:46.309Z,74.86
2022-10-11T20:59:14.401Z,75.01
2022-10-11T21:01:42.722Z,75.00
2022-10-11T21:04:18.840Z,75.18
2022-10-11T21:06:48.284Z,75.23
2022-10-11T21:09:17.291Z,75.45
2022-10-11T21:11:45.694Z,75.52
2022-10-11T21:14:14.409Z,75.67
2022-10-11T21:16:42.546Z,75.70
2022-10-11T21:19:13.151Z,75.82
2022-10-11T21:21:41.510Z,75.94
2022-10-11T21:24:10.259Z,75.83
2022-10-11T21:26:38.182Z,75.82
2022-10-11T21:29:06.492Z,75.95
2022-10-11T21:31:34.728Z,75.85
2022-10-11T21:34:05.298Z,76.02
2022-10-11T21:36:33.888Z,75.99
2022-10-11T21:39:01.941Z,75.86
2022-10-11T21:41:34.182Z,75.93
2022-10-11T21:44:02.290Z,75.93
2022-10-11T21:49:20.234Z,76.19
2022-10-11T21:51:48.711Z,76.36
2022-10-11T21:54:17.164Z,76.35
2022-10-11T21:56:45.036Z,76.37
2022-10-11T21:59:13.592Z,76.29
2022-10-11T22:01:43.449Z,76.35
2022-10-11T22:04:12.458Z,76.34
2022-10-11T22:06:40.722Z,76.39
2022-10-11T22:09:09.117Z,76.51
2022-10-11T22:11:37.949Z,76.67
2022-10-11T22:14:06.088Z,76.61
2022-10-11T22:16:35.182Z,76.81
2022-10-11T22:19:03.738Z,76.66
2022-10-11T22:21:31.807Z,76.80
2022-10-11T22:23:59.876Z,76.99
2022-10-11T22:26:31.051Z,77.02
2022-10-11T22:29:00.430Z,77.02
2022-10-11T22:31:29.496Z,77.20
2022-10-11T22:33:59.409Z,77.33
2022-10-11T22:36:30.649Z,77.42
2022-10-11T22:38:59.181Z,77.39
2022-10-11T22:41:27.229Z,77.47
2022-10-11T22:43:55.202Z,77.60
2022-10-11T22:46:23.122Z,77.78
2022-10-11T22:48:50.992Z,77.85
2022-10-11T22:51:19.783Z,77.71
2022-10-11T22:53:47.749Z,77.89
2022-10-11T22:56:15.754Z,78.04
2022-10-11T22:58:43.723Z,77.90
2022-10-11T23:01:16.043Z,77.75
2022-10-11T23:03:47.243Z,77.95
2022-10-11T23:06:15.200Z,78.09
2022-10-11T23:08:44.507Z,78.10
2022-10-11T23:11:12.888Z,77.90
2022-10-11T23:13:40.849Z,77.90
2022-10-11T23:16:11.235Z,77.89
2022-10-11T23:18:39.546Z,77.91
2022-10-11T23:21:08.353Z,77.81
2022-10-11T23:23:36.305Z,77.87
2022-10-11T23:26:16.324Z,77.55
2022-10-11T23:28:44.870Z,77.56
2022-10-11T23:31:18.142Z,77.51
2022-10-11T23:33:47.018Z,77.82
2022-10-11T23:36:24.177Z,77.87
2022-10-11T23:38:54.630Z,77.92
2022-10-11T23:41:27.987Z,78.01
2022-10-11T23:43:56.365Z,77.91
2022-10-11T23:46:25.720Z,78.02
2022-10-11T23:48:53.669Z,78.16
2022-10-11T23:51:21.636Z,78.18
2022-10-11T23:53:49.501Z,78.28
2022-10-11T23:56:17.680Z,78.39
2022-10-11T23:58:45.956Z,78.41
